sensor_id;sensor_type;location;lat;lon;timestamp;pressure;altitude;pressure_sealevel;temperature;humidity
57234;BME280;43090;52.604;13.318;2023-04-07T00:02:12;101468.81;;;3.10;73.58
57234;BME280;43090;52.604;13.318;2023-04-07T00:04:38;101460.41;;;2.95;73.13
57234;BME280;43090;52.604;13.318;2023-04-07T00:07:05;101458.97;;;2.83;73.96
57234;BME280;43090;52.604;13.318;2023-04-07T00:09:32;101460.47;;;2.92;73.27
57234;BME280;43090;52.604;13.318;2023-04-07T00:11:58;101478.97;;;2.92;73.21
57234;BME280;43090;52.604;13.318;2023-04-07T00:14:27;101469.66;;;2.44;73.57
57234;BME280;43090;52.604;13.318;2023-04-07T00:16:54;101457.63;;;2.67;73.72
57234;BME280;43090;52.604;13.318;2023-04-07T00:19:20;101457.59;;;2.69;74.01
57234;BME280;43090;52.604;13.318;2023-04-07T00:21:47;101449.63;;;2.70;74.60
57234;BME280;43090;52.604;13.318;2023-04-07T00:24:13;101465.13;;;2.49;74.57
57234;BME280;43090;52.604;13.318;2023-04-07T00:26:52;101444.03;;;2.48;74.71
57234;BME280;43090;52.604;13.318;2023-04-07T00:29:19;101435.75;;;2.60;74.71
57234;BME280;43090;52.604;13.318;2023-04-07T00:31:45;101461.00;;;2.72;75.23
57234;BME280;43090;52.604;13.318;2023-04-07T00:34:12;101460.31;;;2.65;73.27
57234;BME280;43090;52.604;13.318;2023-04-07T00:36:40;101453.88;;;2.76;73.55
57234;BME280;43090;52.604;13.318;2023-04-07T00:39:06;101445.25;;;2.35;74.77
57234;BME280;43090;52.604;13.318;2023-04-07T00:41:33;101450.34;;;2.42;74.41
57234;BME280;43090;52.604;13.318;2023-04-07T00:44:01;101455.78;;;2.36;74.96
57234;BME280;43090;52.604;13.318;2023-04-07T00:46:27;101430.91;;;2.09;76.00
57234;BME280;43090;52.604;13.318;2023-04-07T00:48:54;101446.81;;;2.07;76.13
57234;BME280;43090;52.604;13.318;2023-04-07T00:51:20;101449.75;;;2.31;76.24
57234;BME280;43090;52.604;13.318;2023-04-07T00:53:48;101456.50;;;2.07;76.02
57234;BME280;43090;52.604;13.318;2023-04-07T00:56:15;101452.13;;;2.06;76.99
57234;BME280;43090;52.604;13.318;2023-04-07T00:58:41;101452.16;;;2.04;76.91
57234;BME280;43090;52.604;13.318;2023-04-07T01:01:14;101446.44;;;1.85;76.85
57234;BME280;43090;52.604;13.318;2023-04-07T01:03:47;101452.94;;;2.09;76.16
57234;BME280;43090;52.604;13.318;2023-04-07T01:06:16;101435.31;;;1.72;77.00
57234;BME280;43090;52.604;13.318;2023-04-07T01:09:06;101440.13;;;1.92;77.59
57234;BME280;43090;52.604;13.318;2023-04-07T01:11:43;101429.06;;;1.76;78.26
57234;BME280;43090;52.604;13.318;2023-04-07T01:14:14;101420.25;;;1.76;78.33
57234;BME280;43090;52.604;13.318;2023-04-07T01:16:45;101437.56;;;1.88;78.03
57234;BME280;43090;52.604;13.318;2023-04-07T01:19:31;101432.06;;;1.97;78.41
57234;BME280;43090;52.604;13.318;2023-04-07T01:21:59;101409.78;;;1.73;78.52
57234;BME280;43090;52.604;13.318;2023-04-07T01:25:01;101421.41;;;1.64;78.03
57234;BME280;43090;52.604;13.318;2023-04-07T01:30:06;101414.72;;;1.49;78.27
57234;BME280;43090;52.604;13.318;2023-04-07T01:32:36;101390.75;;;1.58;77.39
57234;BME280;43090;52.604;13.318;2023-04-07T01:51:06;101423.56;;;0.60;83.80
57234;BME280;43090;52.604;13.318;2023-04-07T01:53:33;101422.34;;;0.78;84.55
57234;BME280;43090;52.604;13.318;2023-04-07T01:56:03;101420.13;;;1.00;82.29
57234;BME280;43090;52.604;13.318;2023-04-07T01:58:30;101415.78;;;0.99;80.65
57234;BME280;43090;52.604;13.318;2023-04-07T02:00:57;101417.03;;;1.24;79.48
57234;BME280;43090;52.604;13.318;2023-04-07T02:04:05;101419.41;;;1.35;79.42
57234;BME280;43090;52.604;13.318;2023-04-07T02:06:40;101422.75;;;1.43;79.46
57234;BME280;43090;52.604;13.318;2023-04-07T02:09:10;101411.00;;;1.17;80.00
57234;BME280;43090;52.604;13.318;2023-04-07T02:11:37;101404.97;;;1.53;79.53
57234;BME280;43090;52.604;13.318;2023-04-07T02:14:07;101397.84;;;1.55;79.79
57234;BME280;43090;52.604;13.318;2023-04-07T02:16:34;101400.91;;;1.36;80.14
57234;BME280;43090;52.604;13.318;2023-04-07T02:19:02;101379.16;;;1.26;79.36
57234;BME280;43090;52.604;13.318;2023-04-07T02:21:31;101401.06;;;1.30;79.29
57234;BME280;43090;52.604;13.318;2023-04-07T02:24:05;101408.13;;;1.28;79.36
57234;BME280;43090;52.604;13.318;2023-04-07T02:26:35;101397.63;;;1.26;79.54
57234;BME280;43090;52.604;13.318;2023-04-07T02:29:02;101387.06;;;1.26;79.66
57234;BME280;43090;52.604;13.318;2023-04-07T02:31:29;101397.41;;;1.36;79.48
57234;BME280;43090;52.604;13.318;2023-04-07T02:33:56;101396.78;;;1.24;79.87
57234;BME280;43090;52.604;13.318;2023-04-07T02:36:23;101338.38;;;1.02;79.49
57234;BME280;43090;52.604;13.318;2023-04-07T02:38:49;101359.66;;;0.91;80.97
57234;BME280;43090;52.604;13.318;2023-04-07T02:41:16;101384.34;;;1.29;80.57
57234;BME280;43090;52.604;13.318;2023-04-07T02:43:42;101370.88;;;1.03;81.05
57234;BME280;43090;52.604;13.318;2023-04-07T02:46:09;101380.00;;;1.27;80.62
57234;BME280;43090;52.604;13.318;2023-04-07T02:48:35;101391.44;;;1.27;80.35
57234;BME280;43090;52.604;13.318;2023-04-07T02:51:02;101396.66;;;1.30;80.60
57234;BME280;43090;52.604;13.318;2023-04-07T02:53:28;101363.28;;;1.28;79.69
57234;BME280;43090;52.604;13.318;2023-04-07T02:55:55;101386.53;;;1.49;79.33
57234;BME280;43090;52.604;13.318;2023-04-07T02:58:21;101345.41;;;1.02;79.15
57234;BME280;43090;52.604;13.318;2023-04-07T03:00:48;101396.66;;;1.30;78.97
57234;BME280;43090;52.604;13.318;2023-04-07T03:03:16;101381.91;;;1.20;80.21
57234;BME280;43090;52.604;13.318;2023-04-07T03:05:43;101359.78;;;1.27;78.48
57234;BME280;43090;52.604;13.318;2023-04-07T03:08:09;101401.84;;;1.33;78.37
57234;BME280;43090;52.604;13.318;2023-04-07T03:10:38;101392.69;;;1.50;78.52
57234;BME280;43090;52.604;13.318;2023-04-07T03:13:04;101383.78;;;1.16;79.30
57234;BME280;43090;52.604;13.318;2023-04-07T03:15:31;101370.19;;;1.35;78.38
57234;BME280;43090;52.604;13.318;2023-04-07T03:17:57;101380.09;;;1.61;77.89
57234;BME280;43090;52.604;13.318;2023-04-07T03:20:24;101381.88;;;1.61;78.10
57234;BME280;43090;52.604;13.318;2023-04-07T03:22:50;101357.88;;;1.34;78.32
57234;BME280;43090;52.604;13.318;2023-04-07T03:25:17;101383.28;;;1.38;78.21
57234;BME280;43090;52.604;13.318;2023-04-07T03:27:43;101381.41;;;1.43;79.07
57234;BME280;43090;52.604;13.318;2023-04-07T03:30:10;101365.41;;;1.49;79.25
57234;BME280;43090;52.604;13.318;2023-04-07T03:32:37;101380.16;;;1.60;78.10
57234;BME280;43090;52.604;13.318;2023-04-07T03:35:04;101380.94;;;1.24;79.67
57234;BME280;43090;52.604;13.318;2023-04-07T03:37:30;101379.75;;;1.39;78.91
57234;BME280;43090;52.604;13.318;2023-04-07T03:39:56;101368.69;;;1.23;78.92
57234;BME280;43090;52.604;13.318;2023-04-07T03:42:23;101366.84;;;1.25;78.06
57234;BME280;43090;52.604;13.318;2023-04-07T03:44:49;101377.16;;;1.38;78.95
57234;BME280;43090;52.604;13.318;2023-04-07T03:47:16;101371.47;;;1.55;78.21
57234;BME280;43090;52.604;13.318;2023-04-07T03:49:42;101368.94;;;1.50;78.70
57234;BME280;43090;52.604;13.318;2023-04-07T03:52:09;101346.84;;;1.15;78.74
57234;BME280;43090;52.604;13.318;2023-04-07T03:54:36;101333.88;;;1.06;77.75
57234;BME280;43090;52.604;13.318;2023-04-07T03:57:02;101371.06;;;1.72;77.04
57234;BME280;43090;52.604;13.318;2023-04-07T03:59:29;101372.09;;;1.66;77.59
57234;BME280;43090;52.604;13.318;2023-04-07T04:01:55;101367.84;;;1.60;77.18
57234;BME280;43090;52.604;13.318;2023-04-07T04:04:22;101369.63;;;1.58;77.15
57234;BME280;43090;52.604;13.318;2023-04-07T04:06:50;101380.94;;;1.24;76.10
57234;BME280;43090;52.604;13.318;2023-04-07T04:09:16;101380.41;;;1.49;74.96
57234;BME280;43090;52.604;13.318;2023-04-07T04:11:42;101369.25;;;1.38;75.47
57234;BME280;43090;52.604;13.318;2023-04-07T04:14:09;101372.66;;;1.41;74.94
57234;BME280;43090;52.604;13.318;2023-04-07T04:16:35;101373.16;;;1.59;75.46
57234;BME280;43090;52.604;13.318;2023-04-07T04:19:02;101373.84;;;1.67;75.21
57234;BME280;43090;52.604;13.318;2023-04-07T04:21:28;101372.94;;;1.66;74.85
57234;BME280;43090;52.604;13.318;2023-04-07T04:23:55;101377.50;;;1.60;74.02
57234;BME280;43090;52.604;13.318;2023-04-07T04:26:21;101371.72;;;1.44;73.26
57234;BME280;43090;52.604;13.318;2023-04-07T04:28:51;101369.53;;;1.61;72.58
57234;BME280;43090;52.604;13.318;2023-04-07T04:31:18;101378.00;;;1.76;74.17
57234;BME280;43090;52.604;13.318;2023-04-07T04:33:45;101381.88;;;1.98;74.23
57234;BME280;43090;52.604;13.318;2023-04-07T04:36:11;101371.81;;;1.77;73.91
57234;BME280;43090;52.604;13.318;2023-04-07T04:38:38;101351.81;;;1.68;74.49
57234;BME280;43090;52.604;13.318;2023-04-07T04:41:05;101342.91;;;1.72;74.56
57234;BME280;43090;52.604;13.318;2023-04-07T04:43:31;101388.88;;;1.99;74.29
57234;BME280;43090;52.604;13.318;2023-04-07T04:45:57;101376.97;;;1.83;73.38
57234;BME280;43090;52.604;13.318;2023-04-07T04:48:24;101380.38;;;1.88;73.97
57234;BME280;43090;52.604;13.318;2023-04-07T04:50:50;101391.59;;;1.96;74.00
57234;BME280;43090;52.604;13.318;2023-04-07T04:53:17;101356.16;;;1.69;73.37
57234;BME280;43090;52.604;13.318;2023-04-07T04:55:43;101384.91;;;1.83;73.00
57234;BME280;43090;52.604;13.318;2023-04-07T04:58:12;101389.81;;;1.98;73.39
57234;BME280;43090;52.604;13.318;2023-04-07T05:00:38;101377.56;;;1.94;74.80
57234;BME280;43090;52.604;13.318;2023-04-07T05:03:05;101382.50;;;2.08;74.69
57234;BME280;43090;52.604;13.318;2023-04-07T05:05:32;101367.44;;;2.12;74.54
57234;BME280;43090;52.604;13.318;2023-04-07T05:07:58;101399.59;;;2.29;74.56
57234;BME280;43090;52.604;13.318;2023-04-07T05:10:25;101353.78;;;1.96;74.95
57234;BME280;43090;52.604;13.318;2023-04-07T05:12:51;101369.75;;;2.24;74.84
57234;BME280;43090;52.604;13.318;2023-04-07T05:15:18;101401.00;;;2.43;73.75
57234;BME280;43090;52.604;13.318;2023-04-07T05:17:45;101383.38;;;2.42;74.52
57234;BME280;43090;52.604;13.318;2023-04-07T05:20:16;101394.38;;;2.26;73.04
57234;BME280;43090;52.604;13.318;2023-04-07T05:22:42;101356.47;;;2.27;73.73
57234;BME280;43090;52.604;13.318;2023-04-07T05:25:09;101401.19;;;2.68;72.09
57234;BME280;43090;52.604;13.318;2023-04-07T05:27:36;101391.41;;;2.72;72.14
57234;BME280;43090;52.604;13.318;2023-04-07T05:30:02;101390.63;;;2.68;71.08
57234;BME280;43090;52.604;13.318;2023-04-07T05:32:29;101391.66;;;2.94;71.19
57234;BME280;43090;52.604;13.318;2023-04-07T05:34:55;101389.78;;;2.97;71.07
57234;BME280;43090;52.604;13.318;2023-04-07T05:37:22;101387.41;;;2.88;71.47
57234;BME280;43090;52.604;13.318;2023-04-07T05:39:48;101378.44;;;2.94;71.29
57234;BME280;43090;52.604;13.318;2023-04-07T05:42:15;101383.13;;;2.84;69.64
57234;BME280;43090;52.604;13.318;2023-04-07T05:44:41;101384.97;;;3.12;68.82
57234;BME280;43090;52.604;13.318;2023-04-07T05:47:08;101391.19;;;3.09;69.81
57234;BME280;43090;52.604;13.318;2023-04-07T05:49:34;101385.56;;;3.50;69.44
57234;BME280;43090;52.604;13.318;2023-04-07T05:52:01;101389.97;;;3.51;68.19
57234;BME280;43090;52.604;13.318;2023-04-07T05:54:28;101381.22;;;2.89;67.47
57234;BME280;43090;52.604;13.318;2023-04-07T05:56:55;101384.50;;;2.97;67.41
57234;BME280;43090;52.604;13.318;2023-04-07T05:59:21;101380.28;;;3.50;66.92
57234;BME280;43090;52.604;13.318;2023-04-07T06:01:48;101382.31;;;3.42;66.34
57234;BME280;43090;52.604;13.318;2023-04-07T06:04:14;101376.13;;;3.41;66.55
57234;BME280;43090;52.604;13.318;2023-04-07T06:06:41;101380.47;;;3.44;65.68
57234;BME280;43090;52.604;13.318;2023-04-07T06:09:07;101376.47;;;3.00;65.77
57234;BME280;43090;52.604;13.318;2023-04-07T06:11:34;101397.22;;;3.14;66.59
57234;BME280;43090;52.604;13.318;2023-04-07T06:14:00;101387.56;;;3.13;66.49
57234;BME280;43090;52.604;13.318;2023-04-07T06:16:27;101395.50;;;3.13;66.99
57234;BME280;43090;52.604;13.318;2023-04-07T06:18:53;101406.25;;;3.37;67.08
57234;BME280;43090;52.604;13.318;2023-04-07T06:21:20;101397.91;;;3.51;66.36
57234;BME280;43090;52.604;13.318;2023-04-07T06:23:46;101381.66;;;3.62;67.20
57234;BME280;43090;52.604;13.318;2023-04-07T06:26:13;101389.13;;;3.49;66.96
57234;BME280;43090;52.604;13.318;2023-04-07T06:28:40;101412.31;;;3.71;67.00
57234;BME280;43090;52.604;13.318;2023-04-07T06:31:06;101411.78;;;3.88;65.26
57234;BME280;43090;52.604;13.318;2023-04-07T06:33:34;101388.78;;;3.60;65.64
57234;BME280;43090;52.604;13.318;2023-04-07T06:36:00;101407.94;;;3.96;65.82
57234;BME280;43090;52.604;13.318;2023-04-07T06:38:27;101410.84;;;3.60;66.03
57234;BME280;43090;52.604;13.318;2023-04-07T06:40:53;101411.59;;;3.65;65.83
57234;BME280;43090;52.604;13.318;2023-04-07T06:43:20;101415.59;;;3.49;65.67
57234;BME280;43090;52.604;13.318;2023-04-07T06:45:46;101416.84;;;3.37;66.67
57234;BME280;43090;52.604;13.318;2023-04-07T06:48:13;101401.91;;;3.91;66.00
57234;BME280;43090;52.604;13.318;2023-04-07T06:50:39;101379.16;;;3.86;65.42
57234;BME280;43090;52.604;13.318;2023-04-07T06:53:06;101408.41;;;4.09;65.37
57234;BME280;43090;52.604;13.318;2023-04-07T06:55:32;101413.25;;;3.96;64.83
57234;BME280;43090;52.604;13.318;2023-04-07T06:57:59;101407.63;;;3.79;65.79
57234;BME280;43090;52.604;13.318;2023-04-07T07:00:25;101393.19;;;3.61;66.11
57234;BME280;43090;52.604;13.318;2023-04-07T07:02:54;101409.16;;;4.40;65.10
57234;BME280;43090;52.604;13.318;2023-04-07T07:05:21;101412.69;;;4.89;64.13
57234;BME280;43090;52.604;13.318;2023-04-07T07:07:49;101404.28;;;4.78;63.17
57234;BME280;43090;52.604;13.318;2023-04-07T07:10:16;101421.81;;;4.57;64.16
57234;BME280;43090;52.604;13.318;2023-04-07T07:12:42;101421.53;;;4.39;64.39
57234;BME280;43090;52.604;13.318;2023-04-07T07:15:09;101408.03;;;3.93;64.38
57234;BME280;43090;52.604;13.318;2023-04-07T07:17:36;101424.06;;;4.17;66.10
57234;BME280;43090;52.604;13.318;2023-04-07T07:20:06;101411.03;;;4.36;64.54
57234;BME280;43090;52.604;13.318;2023-04-07T07:22:32;101405.06;;;4.29;63.73
57234;BME280;43090;52.604;13.318;2023-04-07T07:24:59;101406.78;;;4.57;63.61
57234;BME280;43090;52.604;13.318;2023-04-07T07:27:25;101420.75;;;4.62;63.20
57234;BME280;43090;52.604;13.318;2023-04-07T07:29:52;101426.16;;;4.59;62.75
57234;BME280;43090;52.604;13.318;2023-04-07T07:32:18;101423.13;;;4.70;63.08
57234;BME280;43090;52.604;13.318;2023-04-07T07:34:45;101421.91;;;4.54;63.50
57234;BME280;43090;52.604;13.318;2023-04-07T07:37:11;101431.34;;;4.62;63.63
57234;BME280;43090;52.604;13.318;2023-04-07T07:39:38;101436.13;;;4.53;61.97
57234;BME280;43090;52.604;13.318;2023-04-07T07:42:06;101434.97;;;4.60;60.85
57234;BME280;43090;52.604;13.318;2023-04-07T07:44:32;101435.50;;;4.95;61.22
57234;BME280;43090;52.604;13.318;2023-04-07T07:46:59;101429.53;;;4.64;62.50
57234;BME280;43090;52.604;13.318;2023-04-07T07:49:25;101436.38;;;5.43;61.02
57234;BME280;43090;52.604;13.318;2023-04-07T07:51:52;101415.78;;;5.72;59.13
57234;BME280;43090;52.604;13.318;2023-04-07T07:54:18;101439.97;;;5.42;57.73
57234;BME280;43090;52.604;13.318;2023-04-07T07:56:45;101443.56;;;5.63;56.37
57234;BME280;43090;52.604;13.318;2023-04-07T07:59:11;101433.63;;;5.68;55.20
57234;BME280;43090;52.604;13.318;2023-04-07T08:01:38;101437.59;;;5.34;56.32
57234;BME280;43090;52.604;13.318;2023-04-07T08:04:04;101436.81;;;5.54;56.02
57234;BME280;43090;52.604;13.318;2023-04-07T08:06:31;101433.38;;;5.52;55.75
57234;BME280;43090;52.604;13.318;2023-04-07T08:08:57;101431.81;;;5.46;56.43
57234;BME280;43090;52.604;13.318;2023-04-07T08:11:24;101435.22;;;5.26;55.23
57234;BME280;43090;52.604;13.318;2023-04-07T08:13:50;101434.69;;;5.64;57.01
57234;BME280;43090;52.604;13.318;2023-04-07T08:16:19;101436.47;;;5.86;55.18
57234;BME280;43090;52.604;13.318;2023-04-07T08:18:47;101439.25;;;6.06;55.08
57234;BME280;43090;52.604;13.318;2023-04-07T08:21:14;101437.75;;;5.99;55.87
57234;BME280;43090;52.604;13.318;2023-04-07T08:23:41;101438.00;;;5.91;52.70
57234;BME280;43090;52.604;13.318;2023-04-07T08:26:08;101449.63;;;5.66;50.12
57234;BME280;43090;52.604;13.318;2023-04-07T08:28:35;101448.00;;;5.40;51.44
57234;BME280;43090;52.604;13.318;2023-04-07T08:31:01;101454.84;;;5.92;50.51
57234;BME280;43090;52.604;13.318;2023-04-07T08:33:28;101450.47;;;6.13;49.16
57234;BME280;43090;52.604;13.318;2023-04-07T08:35:54;101441.09;;;5.58;51.47
57234;BME280;43090;52.604;13.318;2023-04-07T08:38:21;101420.50;;;5.41;51.57
57234;BME280;43090;52.604;13.318;2023-04-07T08:40:53;101422.75;;;5.52;50.58
57234;BME280;43090;52.604;13.318;2023-04-07T08:43:25;101447.28;;;5.59;50.46
57234;BME280;43090;52.604;13.318;2023-04-07T08:45:54;101448.75;;;6.12;50.60
57234;BME280;43090;52.604;13.318;2023-04-07T08:48:23;101450.28;;;5.95;51.43
57234;BME280;43090;52.604;13.318;2023-04-07T08:50:53;101458.53;;;6.11;50.67
57234;BME280;43090;52.604;13.318;2023-04-07T08:53:24;101453.53;;;6.24;50.59
57234;BME280;43090;52.604;13.318;2023-04-07T08:55:55;101447.16;;;6.08;48.79
57234;BME280;43090;52.604;13.318;2023-04-07T08:58:22;101457.66;;;6.11;48.49
57234;BME280;43090;52.604;13.318;2023-04-07T09:00:49;101466.69;;;6.07;46.64
57234;BME280;43090;52.604;13.318;2023-04-07T09:03:16;101450.38;;;5.70;47.68
57234;BME280;43090;52.604;13.318;2023-04-07T09:05:44;101476.38;;;5.62;46.77
57234;BME280;43090;52.604;13.318;2023-04-07T09:08:11;101470.34;;;5.80;47.16
57234;BME280;43090;52.604;13.318;2023-04-07T09:10:38;101476.88;;;5.95;47.79
57234;BME280;43090;52.604;13.318;2023-04-07T09:13:04;101472.59;;;5.45;46.98
57234;BME280;43090;52.604;13.318;2023-04-07T09:15:31;101485.03;;;5.43;47.95
57234;BME280;43090;52.604;13.318;2023-04-07T09:17:58;101467.13;;;5.72;48.28
57234;BME280;43090;52.604;13.318;2023-04-07T09:20:25;101478.50;;;5.76;47.44
57234;BME280;43090;52.604;13.318;2023-04-07T09:22:51;101470.63;;;5.50;48.58
57234;BME280;43090;52.604;13.318;2023-04-07T09:25:20;101470.13;;;5.63;48.75
57234;BME280;43090;52.604;13.318;2023-04-07T09:30:19;101448.09;;;5.83;48.32
57234;BME280;43090;52.604;13.318;2023-04-07T09:32:46;101462.31;;;5.82;48.15
57234;BME280;43090;52.604;13.318;2023-04-07T09:35:13;101466.81;;;5.80;48.77
57234;BME280;43090;52.604;13.318;2023-04-07T09:37:39;101453.97;;;5.91;48.67
57234;BME280;43090;52.604;13.318;2023-04-07T09:40:08;101447.09;;;5.63;49.40
57234;BME280;43090;52.604;13.318;2023-04-07T09:42:44;101440.63;;;5.71;48.37
57234;BME280;43090;52.604;13.318;2023-04-07T09:45:11;101469.75;;;5.26;48.85
57234;BME280;43090;52.604;13.318;2023-04-07T09:47:46;101477.34;;;5.59;48.85
57234;BME280;43090;52.604;13.318;2023-04-07T09:50:13;101475.34;;;6.12;49.31
57234;BME280;43090;52.604;13.318;2023-04-07T09:52:52;101484.72;;;5.98;49.17
57234;BME280;43090;52.604;13.318;2023-04-07T09:55:20;101432.66;;;5.71;50.95
57234;BME280;43090;52.604;13.318;2023-04-07T09:57:49;101482.94;;;5.75;49.29
57234;BME280;43090;52.604;13.318;2023-04-07T10:00:16;101473.34;;;6.17;49.54
57234;BME280;43090;52.604;13.318;2023-04-07T10:02:43;101461.00;;;5.92;49.62
57234;BME280;43090;52.604;13.318;2023-04-07T10:05:10;101463.16;;;6.06;48.96
57234;BME280;43090;52.604;13.318;2023-04-07T10:07:36;101449.63;;;5.89;49.67
57234;BME280;43090;52.604;13.318;2023-04-07T10:10:03;101468.25;;;5.66;49.30
57234;BME280;43090;52.604;13.318;2023-04-07T10:12:33;101469.53;;;6.02;48.53
57234;BME280;43090;52.604;13.318;2023-04-07T10:14:59;101460.28;;;5.66;48.72
57234;BME280;43090;52.604;13.318;2023-04-07T10:17:27;101467.63;;;5.82;50.51
57234;BME280;43090;52.604;13.318;2023-04-07T10:19:57;101467.50;;;5.85;49.82
57234;BME280;43090;52.604;13.318;2023-04-07T10:22:26;101470.00;;;6.12;50.56
57234;BME280;43090;52.604;13.318;2023-04-07T10:25:06;101459.13;;;6.18;50.65
57234;BME280;43090;52.604;13.318;2023-04-07T10:27:42;101473.91;;;6.25;51.05
57234;BME280;43090;52.604;13.318;2023-04-07T10:30:23;101468.66;;;6.02;50.98
57234;BME280;43090;52.604;13.318;2023-04-07T10:32:51;101467.31;;;5.90;51.87
57234;BME280;43090;52.604;13.318;2023-04-07T10:35:19;101474.81;;;5.80;52.48
57234;BME280;43090;52.604;13.318;2023-04-07T10:40:33;101467.59;;;6.06;54.98
57234;BME280;43090;52.604;13.318;2023-04-07T10:43:06;101463.13;;;5.84;56.69
57234;BME280;43090;52.604;13.318;2023-04-07T10:48:13;101478.38;;;5.79;61.49
57234;BME280;43090;52.604;13.318;2023-04-07T10:50:40;101476.63;;;5.32;64.44
57234;BME280;43090;52.604;13.318;2023-04-07T10:53:10;101467.00;;;5.97;64.88
57234;BME280;43090;52.604;13.318;2023-04-07T10:55:44;101462.09;;;6.32;63.71
57234;BME280;43090;52.604;13.318;2023-04-07T11:00:38;101464.56;;;5.93;67.79
57234;BME280;43090;52.604;13.318;2023-04-07T11:03:10;101466.66;;;6.29;67.59
57234;BME280;43090;52.604;13.318;2023-04-07T11:05:39;101448.94;;;5.61;73.31
57234;BME280;43090;52.604;13.318;2023-04-07T11:08:06;101464.56;;;5.47;75.87
57234;BME280;43090;52.604;13.318;2023-04-07T11:10:33;101470.75;;;6.15;74.64
57234;BME280;43090;52.604;13.318;2023-04-07T11:13:05;101419.19;;;5.53;76.71
57234;BME280;43090;52.604;13.318;2023-04-07T11:15:34;101457.38;;;5.95;78.09
57234;BME280;43090;52.604;13.318;2023-04-07T11:18:09;101463.22;;;6.05;79.36
57234;BME280;43090;52.604;13.318;2023-04-07T11:20:55;101475.50;;;5.85;81.39
57234;BME280;43090;52.604;13.318;2023-04-07T11:23:23;101465.03;;;5.80;83.19
57234;BME280;43090;52.604;13.318;2023-04-07T11:25:52;101471.19;;;5.59;85.00
57234;BME280;43090;52.604;13.318;2023-04-07T11:28:19;101448.91;;;5.39;83.84
57234;BME280;43090;52.604;13.318;2023-04-07T11:30:46;101475.28;;;5.20;85.12
57234;BME280;43090;52.604;13.318;2023-04-07T11:33:17;101443.59;;;5.15;86.59
57234;BME280;43090;52.604;13.318;2023-04-07T11:35:55;101473.78;;;5.37;86.37
57234;BME280;43090;52.604;13.318;2023-04-07T11:38:25;101460.72;;;5.30;88.14
57234;BME280;43090;52.604;13.318;2023-04-07T11:40:53;101455.31;;;5.33;89.45
57234;BME280;43090;52.604;13.318;2023-04-07T11:43:25;101465.16;;;5.06;89.85
57234;BME280;43090;52.604;13.318;2023-04-07T11:46:06;101460.91;;;5.02;89.63
57234;BME280;43090;52.604;13.318;2023-04-07T11:48:34;101448.75;;;5.20;90.32
57234;BME280;43090;52.604;13.318;2023-04-07T11:51:03;101433.50;;;5.02;90.77
57234;BME280;43090;52.604;13.318;2023-04-07T11:53:39;101437.56;;;4.61;91.35
57234;BME280;43090;52.604;13.318;2023-04-07T11:56:07;101448.38;;;5.06;91.44
57234;BME280;43090;52.604;13.318;2023-04-07T11:58:37;101445.41;;;5.15;91.60
57234;BME280;43090;52.604;13.318;2023-04-07T12:01:05;101455.41;;;5.30;91.35
57234;BME280;43090;52.604;13.318;2023-04-07T12:03:35;101444.03;;;5.74;89.80
57234;BME280;43090;52.604;13.318;2023-04-07T12:06:05;101454.75;;;5.71;88.92
57234;BME280;43090;52.604;13.318;2023-04-07T12:08:39;101452.63;;;6.03;88.72
57234;BME280;43090;52.604;13.318;2023-04-07T12:11:06;101457.25;;;5.76;91.41
57234;BME280;43090;52.604;13.318;2023-04-07T12:13:37;101467.88;;;5.99;90.45
57234;BME280;43090;52.604;13.318;2023-04-07T12:16:04;101450.81;;;5.36;91.92
57234;BME280;43090;52.604;13.318;2023-04-07T12:18:31;101443.84;;;5.79;89.74
57234;BME280;43090;52.604;13.318;2023-04-07T12:20:57;101458.91;;;5.78;91.62
57234;BME280;43090;52.604;13.318;2023-04-07T12:23:24;101464.06;;;5.59;89.53
57234;BME280;43090;52.604;13.318;2023-04-07T12:25:50;101453.28;;;5.64;90.92
57234;BME280;43090;52.604;13.318;2023-04-07T12:28:17;101456.69;;;4.96;93.42
57234;BME280;43090;52.604;13.318;2023-04-07T12:30:44;101455.31;;;5.33;94.54
57234;BME280;43090;52.604;13.318;2023-04-07T12:33:10;101458.13;;;5.29;93.50
57234;BME280;43090;52.604;13.318;2023-04-07T12:35:36;101437.06;;;5.48;94.58
57234;BME280;43090;52.604;13.318;2023-04-07T12:38:04;101452.47;;;5.38;92.30
57234;BME280;43090;52.604;13.318;2023-04-07T12:40:30;101454.13;;;5.64;93.70
57234;BME280;43090;52.604;13.318;2023-04-07T12:42:57;101452.41;;;5.63;92.23
57234;BME280;43090;52.604;13.318;2023-04-07T12:45:24;101457.41;;;5.71;92.44
57234;BME280;43090;52.604;13.318;2023-04-07T12:47:50;101460.50;;;5.60;94.11
57234;BME280;43090;52.604;13.318;2023-04-07T12:50:17;101455.81;;;5.43;94.56
57234;BME280;43090;52.604;13.318;2023-04-07T12:52:43;101462.78;;;6.15;92.39
57234;BME280;43090;52.604;13.318;2023-04-07T12:55:10;101451.81;;;5.79;92.21
57234;BME280;43090;52.604;13.318;2023-04-07T12:57:36;101443.34;;;5.69;92.23
57234;BME280;43090;52.604;13.318;2023-04-07T13:00:04;101450.84;;;5.58;90.65
57234;BME280;43090;52.604;13.318;2023-04-07T13:02:31;101431.03;;;5.66;91.16
57234;BME280;43090;52.604;13.318;2023-04-07T13:04:58;101445.06;;;5.92;90.50
57234;BME280;43090;52.604;13.318;2023-04-07T13:07:24;101458.03;;;5.56;89.51
57234;BME280;43090;52.604;13.318;2023-04-07T13:09:50;101447.16;;;5.38;92.72
57234;BME280;43090;52.604;13.318;2023-04-07T13:12:17;101446.84;;;5.70;91.93
57234;BME280;43090;52.604;13.318;2023-04-07T13:14:43;101454.78;;;5.24;91.99
57234;BME280;43090;52.604;13.318;2023-04-07T13:17:24;101440.19;;;5.81;91.36
57234;BME280;43090;52.604;13.318;2023-04-07T13:19:51;101443.09;;;5.97;90.53
57234;BME280;43090;52.604;13.318;2023-04-07T13:22:25;101438.94;;;6.14;91.50
57234;BME280;43090;52.604;13.318;2023-04-07T13:24:51;101430.59;;;6.01;91.20